createdAt,value
2019-06-10T00:01:32.747Z,101233.07
2019-06-10T00:04:05.140Z,101229.36
2019-06-10T00:06:31.768Z,101227.39
2019-06-10T00:09:03.151Z,101228.66
2019-06-10T00:11:31.530Z,101234.36
2019-06-10T00:14:02.438Z,101235.65
2019-06-10T00:16:30.943Z,101236.11
2019-06-10T00:19:02.798Z,101239.23
2019-06-10T00:21:30.806Z,101246.30
2019-06-10T00:24:02.156Z,101256.63
2019-06-10T00:26:30.738Z,101254.08
2019-06-10T00:29:00.682Z,101246.30
2019-06-10T00:31:31.303Z,101246.83
2019-06-10T00:34:02.961Z,101242.92
2019-06-10T00:36:30.977Z,101232.25
2019-06-10T00:39:02.461Z,101235.97
2019-06-10T00:41:31.264Z,101234.00
2019-06-10T00:44:01.822Z,101232.90
2019-06-10T00:46:31.652Z,101228.42
2019-06-10T00:49:02.962Z,101221.18
2019-06-10T00:51:31.382Z,101216.42
2019-06-10T00:54:03.276Z,101211.08
2019-06-10T00:56:30.821Z,101204.69
2019-06-10T00:59:01.038Z,101202.25
2019-06-10T01:01:31.272Z,101201.20
2019-06-10T01:04:02.960Z,101196.22
2019-06-10T01:06:31.868Z,101196.67
2019-06-10T01:09:00.763Z,101188.17
2019-06-10T01:11:31.073Z,101186.09
2019-06-10T01:14:01.457Z,101176.67
2019-06-10T01:16:31.849Z,101170.39
2019-06-10T01:19:01.522Z,101157.38
2019-06-10T01:21:31.320Z,101157.06
2019-06-10T01:24:01.202Z,101151.78
2019-06-10T01:26:31.036Z,101152.41
2019-06-10T01:29:01.000Z,101153.53
2019-06-10T01:31:31.785Z,101160.81
2019-06-10T01:34:00.768Z,101154.30
2019-06-10T01:36:31.416Z,101151.28
2019-06-10T01:39:01.569Z,101141.16
2019-06-10T01:41:30.628Z,101133.99
2019-06-10T01:44:01.577Z,101121.51
2019-06-10T01:46:31.673Z,101124.79
2019-06-10T01:49:00.760Z,101132.41
2019-06-10T01:51:31.528Z,101138.17
2019-06-10T01:54:01.299Z,101132.25
2019-06-10T01:56:31.452Z,101133.41
2019-06-10T01:59:01.491Z,101125.26
2019-06-10T02:01:43.957Z,101123.38
2019-06-10T02:04:15.002Z,101111.95
2019-06-10T02:06:42.859Z,101107.17
2019-06-10T02:09:13.889Z,101097.03
2019-06-10T02:11:41.850Z,101090.75
2019-06-10T02:14:14.634Z,101074.07
2019-06-10T02:16:41.429Z,101068.44
2019-06-10T02:19:13.796Z,101056.63
2019-06-10T02:21:41.691Z,101050.80
2019-06-10T02:24:12.853Z,101047.22
2019-06-10T02:26:41.115Z,101053.11
2019-06-10T02:29:12.486Z,101041.16
2019-06-10T02:31:43.131Z,101047.46
2019-06-10T02:34:13.218Z,101053.42
2019-06-10T02:36:44.262Z,101056.02
2019-06-10T02:39:16.147Z,101048.85
2019-06-10T02:41:44.595Z,101019.79
2019-06-10T02:44:17.201Z,101016.93
2019-06-10T02:46:43.959Z,101006.46
2019-06-10T02:49:23.270Z,100996.63
2019-06-10T02:51:44.009Z,100990.70
2019-06-10T02:54:16.119Z,100983.63
2019-06-10T02:56:44.100Z,100977.66
2019-06-10T02:59:13.462Z,100976.73
2019-06-10T03:01:44.045Z,100980.10
2019-06-10T03:04:13.739Z,100988.38
2019-06-10T03:06:44.856Z,100986.00
2019-06-10T03:09:14.055Z,100982.20
2019-06-10T03:11:44.831Z,100982.63
2019-06-10T03:14:13.392Z,100983.75
2019-06-10T03:16:43.595Z,100976.81
2019-06-10T03:19:13.308Z,100982.53
2019-06-10T03:21:42.869Z,100979.30
2019-06-10T03:24:13.207Z,100987.19
2019-06-10T03:26:42.821Z,100991.67
2019-06-10T03:29:12.855Z,100998.66
2019-06-10T03:31:47.807Z,101004.38
2019-06-10T03:34:14.765Z,101005.41
2019-06-10T03:36:42.932Z,101011.98
2019-06-10T03:39:13.310Z,101008.27
2019-06-10T03:41:42.467Z,101022.77
2019-06-10T03:44:13.182Z,101032.19
2019-06-10T03:46:43.081Z,101027.08
2019-06-10T03:49:12.706Z,101017.48
2019-06-10T03:51:42.901Z,101015.83
2019-06-10T03:54:13.087Z,101019.77
2019-06-10T03:56:43.021Z,101011.64
2019-06-10T03:59:12.359Z,101005.66
2019-06-10T04:01:42.594Z,100993.12
2019-06-10T04:04:13.060Z,100993.06
2019-06-10T04:06:44.212Z,100991.34
2019-06-10T04:09:12.294Z,100996.52
2019-06-10T04:11:43.042Z,100985.92
2019-06-10T04:14:13.027Z,100987.47
2019-06-10T04:16:43.271Z,100993.01
2019-06-10T04:19:13.191Z,100978.09
2019-06-10T04:21:43.308Z,100979.06
2019-06-10T04:24:12.831Z,100983.26
2019-06-10T04:26:43.443Z,100969.50
2019-06-10T04:29:12.919Z,100967.66
2019-06-10T04:31:42.509Z,100959.81
2019-06-10T04:34:12.471Z,100952.94
2019-06-10T04:36:42.342Z,100942.93
2019-06-10T04:39:12.519Z,100934.91
2019-06-10T04:41:42.622Z,100930.27
2019-06-10T04:44:13.220Z,100918.52
2019-06-10T04:46:42.796Z,100908.59
2019-06-10T04:49:13.210Z,100896.23
2019-06-10T04:51:43.468Z,100903.22
2019-06-10T04:54:13.344Z,100910.27
2019-06-10T04:56:42.986Z,100930.01
2019-06-10T04:59:17.233Z,100935.52
2019-06-10T05:01:56.822Z,100942.72
2019-06-10T05:04:28.763Z,100965.55
2019-06-10T05:06:57.704Z,100954.48
2019-06-10T05:09:27.936Z,100958.42
2019-06-10T05:11:56.581Z,100958.47
2019-06-10T05:14:26.689Z,100957.14
2019-06-10T05:16:55.555Z,100949.83
2019-06-10T05:19:25.922Z,100949.33
2019-06-10T05:21:54.509Z,100948.48
2019-06-10T05:24:25.348Z,100943.05
2019-06-10T05:26:53.449Z,100934.86
2019-06-10T05:29:23.537Z,100930.36
2019-06-10T05:31:52.399Z,100939.94
2019-06-10T05:34:23.595Z,100944.44
2019-06-10T05:36:52.575Z,100934.26
2019-06-10T05:39:23.724Z,100934.45
2019-06-10T05:41:53.069Z,100922.91
2019-06-10T05:44:23.929Z,100930.78
2019-06-10T05:46:52.901Z,100927.73
2019-06-10T05:49:24.164Z,100936.74
2019-06-10T05:51:52.692Z,100947.07
2019-06-10T05:54:23.394Z,100938.75
2019-06-10T05:56:52.292Z,100932.20
2019-06-10T05:59:23.033Z,100928.39
2019-06-10T06:01:53.842Z,100922.81
2019-06-10T06:04:23.313Z,100924.09
2019-06-10T06:06:53.136Z,100921.19
2019-06-10T06:09:22.223Z,100925.09
2019-06-10T06:11:52.388Z,100922.30
2019-06-10T06:14:22.614Z,100928.09
2019-06-10T06:16:53.396Z,100917.68
2019-06-10T06:19:23.126Z,100911.31
2019-06-10T06:21:53.011Z,100910.06
2019-06-10T06:24:22.076Z,100912.63
2019-06-10T06:26:53.283Z,100929.17
2019-06-10T06:29:22.229Z,100929.94
2019-06-10T06:31:52.377Z,100932.27
2019-06-10T06:34:22.488Z,100930.43
2019-06-10T06:36:52.843Z,100929.56
2019-06-10T06:39:24.155Z,100931.37
2019-06-10T06:41:52.854Z,100916.73
2019-06-10T06:44:23.304Z,100913.44
2019-06-10T06:46:53.273Z,100903.53
2019-06-10T06:49:23.107Z,100882.98
2019-06-10T06:51:58.857Z,100875.52
2019-06-10T06:54:22.990Z,100871.27
2019-06-10T06:56:53.438Z,100863.03
2019-06-10T06:59:22.409Z,100864.66
2019-06-10T07:01:52.471Z,100884.86
2019-06-10T07:04:23.522Z,100878.05
2019-06-10T07:06:55.163Z,100884.45
2019-06-10T07:09:22.465Z,100882.66
2019-06-10T07:11:52.962Z,100884.02
2019-06-10T07:14:23.827Z,100883.08
2019-06-10T07:16:52.961Z,100882.18
2019-06-10T07:19:22.678Z,100878.91
2019-06-10T07:22:08.594Z,100876.15
2019-06-10T07:24:23.176Z,100880.33
2019-06-10T07:26:54.951Z,100880.19
2019-06-10T07:29:22.693Z,100869.75
2019-06-10T07:31:53.498Z,100871.73
2019-06-10T07:34:22.251Z,100880.44
2019-06-10T07:36:52.170Z,100875.69
2019-06-10T07:39:22.736Z,100874.17
2019-06-10T07:41:53.140Z,100872.19
2019-06-10T07:44:22.673Z,100874.20
2019-06-10T07:46:53.021Z,100869.78
2019-06-10T07:49:23.880Z,100875.36
2019-06-10T07:51:52.419Z,100871.88
2019-06-10T07:54:23.066Z,100884.39
2019-06-10T07:56:53.710Z,100882.31
2019-06-10T07:59:25.909Z,100889.72
2019-06-10T08:01:56.741Z,100890.44
2019-06-10T08:04:25.439Z,100884.87
2019-06-10T08:06:54.033Z,100875.61
2019-06-10T08:09:22.869Z,100876.03
2019-06-10T08:11:53.243Z,100880.22
2019-06-10T08:14:22.335Z,100878.98
2019-06-10T08:16:53.200Z,100879.20
2019-06-10T08:19:34.484Z,100878.83
2019-06-10T08:21:54.137Z,100870.96
2019-06-10T08:24:22.745Z,100871.11
2019-06-10T08:26:53.093Z,100866.95
2019-06-10T08:29:23.403Z,100864.23
2019-06-10T08:31:53.239Z,100863.98
2019-06-10T08:34:22.336Z,100871.11
2019-06-10T08:36:54.176Z,100868.47
2019-06-10T08:39:23.082Z,100873.84
2019-06-10T08:41:52.811Z,100877.95
2019-06-10T08:44:23.051Z,100877.34
2019-06-10T08:46:52.415Z,100873.39
2019-06-10T08:49:23.693Z,100869.54
2019-06-10T08:51:53.481Z,100866.41
2019-06-10T08:54:23.430Z,100862.42
2019-06-10T08:56:54.115Z,100865.34
2019-06-10T08:59:23.095Z,100862.82
2019-06-10T09:01:56.711Z,100865.38
2019-06-10T09:04:22.831Z,100866.47
2019-06-10T09:06:53.806Z,100872.78
2019-06-10T09:09:22.806Z,100878.94
2019-06-10T09:11:54.727Z,100869.33
2019-06-10T09:14:23.436Z,100870.33
2019-06-10T09:16:54.258Z,100870.95
2019-06-10T09:19:22.362Z,100869.91
2019-06-10T09:21:55.749Z,100865.38
2019-06-10T09:24:22.262Z,100861.91
2019-06-10T09:26:52.472Z,100859.28
2019-06-10T09:29:22.297Z,100854.27
2019-06-10T09:31:53.263Z,100853.92
2019-06-10T09:34:23.793Z,100850.28
2019-06-10T09:36:56.721Z,100836.62
2019-06-10T09:39:23.018Z,100838.55
2019-06-10T09:42:00.294Z,100830.52
2019-06-10T09:44:22.881Z,100825.61
2019-06-10T09:46:55.936Z,100825.62
2019-06-10T09:49:23.601Z,100821.02
2019-06-10T09:51:57.422Z,100826.20
2019-06-10T09:54:25.437Z,100826.83
2019-06-10T09:56:54.648Z,100830.19
2019-06-10T09:59:23.704Z,100822.19
2019-06-10T10:01:58.757Z,100823.81
2019-06-10T10:04:23.608Z,100837.56
2019-06-10T10:06:57.161Z,100838.73
2019-06-10T10:09:25.719Z,100845.33
2019-06-10T10:11:55.977Z,100847.48
2019-06-10T10:14:24.648Z,100846.53
2019-06-10T10:16:59.839Z,100834.55
2019-06-10T10:19:23.572Z,100845.01
2019-06-10T10:21:57.044Z,100836.86
2019-06-10T10:24:23.062Z,100830.69
2019-06-10T10:26:57.123Z,100832.02
2019-06-10T10:29:22.838Z,100827.66
2019-06-10T10:31:52.753Z,100832.09
2019-06-10T10:34:23.580Z,100820.52
2019-06-10T10:36:56.973Z,100830.83
2019-06-10T10:39:24.633Z,100835.30
2019-06-10T10:41:56.547Z,100836.11
2019-06-10T10:44:23.559Z,100837.39
2019-06-10T10:46:54.405Z,100832.56
2019-06-10T10:49:22.591Z,100829.06
2019-06-10T10:51:51.218Z,100823.13
2019-06-10T10:54:29.330Z,100826.38
2019-06-10T10:56:55.114Z,100822.09
2019-06-10T10:59:22.030Z,100825.52
2019-06-10T11:01:52.074Z,100826.66
2019-06-10T11:04:23.137Z,100829.58
2019-06-10T11:06:54.417Z,100836.62
2019-06-10T11:09:23.828Z,100828.88
2019-06-10T11:11:54.958Z,100828.11
2019-06-10T11:14:23.810Z,100834.33
2019-06-10T11:16:56.579Z,100829.84
2019-06-10T11:19:22.699Z,100824.61
2019-06-10T11:21:51.593Z,100820.11
2019-06-10T11:24:33.517Z,100823.53
2019-06-10T11:26:53.577Z,100813.70
2019-06-10T11:29:21.050Z,100818.93
2019-06-10T11:31:53.687Z,100812.59
2019-06-10T11:34:21.174Z,100807.95
2019-06-10T11:36:50.471Z,100811.25
2019-06-10T11:39:19.888Z,100813.41
2019-06-10T11:41:48.433Z,100800.61
2019-06-10T11:44:17.025Z,100806.65
2019-06-10T11:46:46.649Z,100802.72
2019-06-10T11:49:15.266Z,100804.88
2019-06-10T11:51:43.839Z,100792.61
2019-06-10T11:54:12.988Z,100797.06
2019-06-10T11:56:42.259Z,100798.67
2019-06-10T11:59:13.283Z,100794.88
2019-06-10T12:01:42.707Z,100789.00
2019-06-10T12:04:12.881Z,100785.36
2019-06-10T12:06:42.568Z,100782.61
2019-06-10T12:09:13.797Z,100785.91
2019-06-10T12:11:43.821Z,100782.87
2019-06-10T12:14:12.865Z,100778.45
2019-06-10T12:19:12.793Z,100779.45
2019-06-10T12:21:43.511Z,100775.36
2019-06-10T12:24:12.689Z,100768.19
2019-06-10T12:26:43.400Z,100766.63
2019-06-10T12:29:12.542Z,100752.47
2019-06-10T12:31:42.846Z,100758.22
2019-06-10T12:34:12.560Z,100768.91
2019-06-10T12:36:41.539Z,100768.13
2019-06-10T12:39:14.255Z,100767.03
2019-06-10T12:41:42.885Z,100764.95
2019-06-10T12:44:12.397Z,100754.63
2019-06-10T12:46:43.076Z,100750.99
2019-06-10T12:49:13.091Z,100744.58
2019-06-10T12:51:42.287Z,100732.52
2019-06-10T12:54:13.160Z,100727.36
2019-06-10T12:56:42.911Z,100723.08
2019-06-10T12:59:13.653Z,100719.63
2019-06-10T13:01:44.889Z,100728.49
2019-06-10T13:04:13.698Z,100723.55
2019-06-10T13:06:44.159Z,100719.59
2019-06-10T13:09:13.038Z,100712.84
2019-06-10T13:11:43.391Z,100712.45
2019-06-10T13:14:13.031Z,100711.70
2019-06-10T13:16:43.327Z,100701.61
2019-06-10T13:19:13.204Z,100687.78
2019-06-10T13:21:42.694Z,100695.00
2019-06-10T13:24:13.185Z,100690.16
2019-06-10T13:26:43.239Z,100679.70
2019-06-10T13:29:16.916Z,100671.86
2019-06-10T13:31:43.535Z,100663.43
2019-06-10T13:34:14.603Z,100654.17
2019-06-10T13:36:42.925Z,100651.56
2019-06-10T13:39:13.433Z,100651.54
2019-06-10T13:41:43.761Z,100657.75
2019-06-10T13:44:16.614Z,100644.03
2019-06-10T13:46:43.427Z,100647.78
2019-06-10T13:49:14.891Z,100645.60
2019-06-10T13:51:43.920Z,100646.04
2019-06-10T13:54:13.951Z,100647.05
2019-06-10T13:56:47.334Z,100631.41
2019-06-10T13:59:22.765Z,100628.16
2019-06-10T14:01:49.459Z,100627.97
2019-06-10T14:04:24.783Z,100625.11
2019-06-10T14:06:50.601Z,100616.70
2019-06-10T14:09:19.280Z,100621.50
2019-06-10T14:11:47.963Z,100619.48
2019-06-10T14:14:18.204Z,100616.31
2019-06-10T14:16:46.916Z,100616.48
2019-06-10T14:19:16.200Z,100614.67
2019-06-10T14:21:45.130Z,100608.64
2019-06-10T14:24:16.249Z,100611.04
2019-06-10T14:26:45.555Z,100604.41
2019-06-10T14:29:15.963Z,100602.78
2019-06-10T14:31:47.664Z,100600.22
2019-06-10T14:34:17.997Z,100598.42
2019-06-10T14:36:45.570Z,100597.99
2019-06-10T14:39:15.919Z,100593.58
2019-06-10T14:41:46.239Z,100591.78
2019-06-10T14:44:17.742Z,100588.98
2019-06-10T14:46:45.283Z,100585.17
2019-06-10T14:49:16.559Z,100584.17
2019-06-10T14:51:44.121Z,100585.98
2019-06-10T14:54:16.349Z,100583.55
2019-06-10T14:56:56.896Z,100585.38
2019-06-10T14:59:24.070Z,100581.78
2019-06-10T15:01:52.700Z,100581.56
2019-06-10T15:04:23.262Z,100586.18
2019-06-10T15:06:55.139Z,100576.34
2019-06-10T15:09:23.675Z,100564.89
2019-06-10T15:11:52.297Z,100571.10
2019-06-10T15:14:23.303Z,100569.10
2019-06-10T15:16:53.386Z,100576.52
2019-06-10T15:19:28.667Z,100579.94
2019-06-10T15:21:52.611Z,100576.14
2019-06-10T15:24:23.744Z,100575.55
2019-06-10T15:27:07.909Z,100564.48
2019-06-10T15:29:23.481Z,100555.23
2019-06-10T15:32:05.985Z,100550.82
2019-06-10T15:34:22.415Z,100553.86
2019-06-10T15:36:52.728Z,100543.81
2019-06-10T15:39:23.970Z,100546.19
2019-06-10T15:41:52.427Z,100539.78
2019-06-10T15:44:40.485Z,100544.39
2019-06-10T15:46:52.476Z,100538.58
2019-06-10T15:49:25.813Z,100536.77
2019-06-10T15:51:52.592Z,100536.38
2019-06-10T15:54:25.143Z,100547.97
2019-06-10T15:56:56.106Z,100554.63
2019-06-10T15:59:22.202Z,100559.77
2019-06-10T16:01:53.122Z,100560.63
2019-06-10T16:04:25.135Z,100563.03
2019-06-10T16:06:53.055Z,100562.95
2019-06-10T16:09:22.529Z,100546.75
2019-06-10T16:11:53.770Z,100553.43
2019-06-10T16:14:25.143Z,100543.41
2019-06-10T16:16:52.675Z,100537.38
2019-06-10T16:19:21.383Z,100532.37
2019-06-10T16:21:54.839Z,100530.95
2019-06-10T16:24:25.950Z,100527.75
2019-06-10T16:26:54.075Z,100522.94
2019-06-10T16:29:24.253Z,100525.13
2019-06-10T16:31:53.069Z,100515.50
2019-06-10T16:34:25.027Z,100510.89
2019-06-10T16:36:53.200Z,100505.44
2019-06-10T16:39:24.164Z,100502.03
2019-06-10T16:41:52.513Z,100504.42
2019-06-10T16:44:25.037Z,100496.83
2019-06-10T16:46:52.692Z,100497.41
2019-06-10T16:49:21.509Z,100492.02
2019-06-10T16:51:52.045Z,100497.22
2019-06-10T16:54:23.679Z,100503.84
2019-06-10T16:56:56.272Z,100493.02
2019-06-10T16:59:27.525Z,100499.42
2019-06-10T17:01:55.810Z,100500.02
2019-06-10T17:04:26.216Z,100507.87
2019-06-10T17:06:54.832Z,100511.67
2019-06-10T17:09:24.984Z,100512.84
2019-06-10T17:11:53.858Z,100511.65
2019-06-10T17:14:24.707Z,100513.05
2019-06-10T17:16:52.974Z,100512.69
2019-06-10T17:19:26.445Z,100519.09
2019-06-10T17:21:52.775Z,100517.50
2019-06-10T17:24:23.800Z,100513.89
2019-06-10T17:26:53.222Z,100511.48
2019-06-10T17:29:24.392Z,100511.06
2019-06-10T17:31:53.109Z,100518.70
2019-06-10T17:34:24.641Z,100512.47
2019-06-10T17:36:53.810Z,100516.91
2019-06-10T17:39:24.674Z,100508.67
2019-06-10T17:41:53.005Z,100507.09
2019-06-10T17:44:24.363Z,100503.67
2019-06-10T17:46:52.850Z,100495.63
2019-06-10T17:49:23.794Z,100505.48
2019-06-10T17:51:52.613Z,100509.67
2019-06-10T17:54:22.510Z,100508.69
2019-06-10T17:56:51.745Z,100501.39
2019-06-10T17:59:22.504Z,100498.44
2019-06-10T18:01:52.391Z,100493.44
2019-06-10T18:04:22.643Z,100488.16
2019-06-10T18:06:52.931Z,100489.22
2019-06-10T18:09:24.036Z,100497.00
2019-06-10T18:11:52.207Z,100504.23
2019-06-10T18:14:22.999Z,100502.22
2019-06-10T18:16:52.425Z,100499.59
2019-06-10T18:19:22.247Z,100502.78
2019-06-10T18:21:52.281Z,100501.59
2019-06-10T18:24:23.933Z,100496.14
2019-06-10T18:26:52.922Z,100487.74
2019-06-10T18:29:22.935Z,100481.14
2019-06-10T18:31:53.018Z,100478.85
2019-06-10T18:34:25.678Z,100472.44
2019-06-10T18:36:54.479Z,100469.20
2019-06-10T18:39:23.077Z,100472.41
2019-06-10T18:41:52.932Z,100465.59
2019-06-10T18:44:24.068Z,100464.94
2019-06-10T18:46:52.155Z,100474.95
2019-06-10T18:49:22.677Z,100475.52
2019-06-10T18:51:53.197Z,100472.28
2019-06-10T18:54:22.547Z,100471.47
2019-06-10T18:56:52.593Z,100465.61
2019-06-10T18:59:21.538Z,100461.83
2019-06-10T19:01:52.462Z,100451.16
2019-06-10T19:04:22.416Z,100447.97
2019-06-10T19:06:53.283Z,100441.72
2019-06-10T19:09:21.878Z,100442.36
2019-06-10T19:11:50.555Z,100432.51
2019-06-10T19:14:19.243Z,100439.94
2019-06-10T19:16:47.807Z,100439.88
2019-06-10T19:19:19.548Z,100443.45
2019-06-10T19:22:04.680Z,100451.05
2019-06-10T19:24:20.326Z,100450.06
2019-06-10T19:26:48.879Z,100456.88
2019-06-10T19:29:30.144Z,100451.64
2019-06-10T19:31:52.729Z,100455.95
2019-06-10T19:34:22.471Z,100472.34
2019-06-10T19:36:52.201Z,100482.73
2019-06-10T19:39:22.275Z,100494.31
2019-06-10T19:41:53.055Z,100488.09
2019-06-10T19:44:23.453Z,100497.84
2019-06-10T19:46:52.254Z,100494.65
2019-06-10T19:49:21.077Z,100496.36
2019-06-10T19:51:49.645Z,100501.50
2019-06-10T19:54:18.244Z,100500.33
2019-06-10T19:56:46.926Z,100506.41
2019-06-10T19:59:15.522Z,100504.93
2019-06-10T20:01:46.591Z,100511.48
2019-06-10T20:04:17.857Z,100512.36
2019-06-10T20:06:50.293Z,100506.98
2019-06-10T20:09:15.155Z,100504.55
2019-06-10T20:11:46.032Z,100506.57
2019-06-10T20:14:14.104Z,100495.94
2019-06-10T20:16:44.655Z,100493.14
2019-06-10T20:19:13.116Z,100492.31
2019-06-10T20:21:43.609Z,100484.98
2019-06-10T20:24:12.454Z,100482.52
2019-06-10T20:26:43.284Z,100476.72
2019-06-10T20:29:12.616Z,100471.91
2019-06-10T20:31:45.182Z,100460.28
2019-06-10T20:34:13.281Z,100455.90
2019-06-10T20:36:44.094Z,100462.25
2019-06-10T20:39:12.643Z,100462.20
2019-06-10T20:41:47.200Z,100462.78
2019-06-10T20:44:13.131Z,100463.22
2019-06-10T20:46:43.521Z,100460.80
2019-06-10T20:49:13.500Z,100465.00
2019-06-10T20:51:55.715Z,100469.70
2019-06-10T20:54:13.054Z,100474.84
2019-06-10T20:56:45.578Z,100472.64
2019-06-10T20:59:13.145Z,100466.70
2019-06-10T21:01:44.500Z,100457.12
2019-06-10T21:04:13.161Z,100446.71
2019-06-10T21:06:43.601Z,100431.89
2019-06-10T21:09:13.388Z,100430.08
2019-06-10T21:11:45.050Z,100442.30
2019-06-10T21:14:12.681Z,100449.05
2019-06-10T21:16:42.051Z,100461.80
2019-06-10T21:19:10.937Z,100452.00
2019-06-10T21:21:40.381Z,100438.06
2019-06-10T21:24:09.710Z,100429.67
2019-06-10T21:26:38.271Z,100436.91
2019-06-10T21:29:06.912Z,100430.08
2019-06-10T21:31:35.482Z,100418.89
2019-06-10T21:34:04.216Z,100425.66
2019-06-10T21:36:32.777Z,100430.39
2019-06-10T21:39:02.789Z,100426.23
2019-06-10T21:41:31.747Z,100403.61
2019-06-10T21:44:02.778Z,100385.56
2019-06-10T21:46:32.591Z,100397.64
2019-06-10T21:49:01.047Z,100401.62
2019-06-10T21:51:31.658Z,100403.61
2019-06-10T21:54:00.005Z,100391.80
2019-06-10T21:56:28.660Z,100376.23
2019-06-10T21:58:57.375Z,100385.80
2019-06-10T22:01:25.951Z,100377.42
2019-06-10T22:04:00.719Z,100364.29
2019-06-10T22:06:24.811Z,100365.84
2019-06-10T22:08:56.324Z,100383.09
2019-06-10T22:11:23.808Z,100392.19
2019-06-10T22:13:53.341Z,100386.44
2019-06-10T22:16:22.869Z,100375.38
2019-06-10T22:18:52.598Z,100375.88
2019-06-10T22:21:22.686Z,100363.86
2019-06-10T22:23:55.049Z,100361.41
2019-06-10T22:26:22.593Z,100377.55
2019-06-10T22:28:54.106Z,100396.72
2019-06-10T22:31:23.674Z,100408.33
2019-06-10T22:33:54.257Z,100414.94
2019-06-10T22:36:23.218Z,100424.41
2019-06-10T22:38:55.795Z,100421.68
2019-06-10T22:41:22.761Z,100425.55
2019-06-10T22:43:53.835Z,100410.83
2019-06-10T22:46:23.223Z,100412.61
2019-06-10T22:48:53.434Z,100399.89
2019-06-10T22:51:22.868Z,100391.03
2019-06-10T22:53:54.707Z,100377.95
2019-06-10T22:56:22.052Z,100364.10
2019-06-10T22:58:53.958Z,100357.82
2019-06-10T23:01:31.718Z,100356.58
2019-06-10T23:03:52.140Z,100340.73
2019-06-10T23:06:23.282Z,100329.69
2019-06-10T23:08:54.661Z,100321.59
2019-06-10T23:11:23.870Z,100324.47
2019-06-10T23:13:54.717Z,100319.50
2019-06-10T23:16:22.414Z,100317.89
2019-06-10T23:18:53.617Z,100330.59
2019-06-10T23:21:21.261Z,100346.57
2019-06-10T23:23:52.251Z,100354.92
2019-06-10T23:26:22.406Z,100342.27
2019-06-10T23:28:52.789Z,100326.48
2019-06-10T23:31:22.847Z,100325.89
2019-06-10T23:33:53.501Z,100330.94
2019-06-10T23:36:23.558Z,100325.19
2019-06-10T23:38:52.807Z,100326.06
2019-06-10T23:41:22.481Z,100328.78
2019-06-10T23:43:51.269Z,100347.64
2019-06-10T23:46:19.866Z,100385.27
2019-06-10T23:48:48.444Z,100443.80
2019-06-10T23:51:17.112Z,100443.02
2019-06-10T23:53:45.702Z,100440.50
2019-06-10T23:56:14.295Z,100450.68
2019-06-10T23:58:43.377Z,100453.11
